• Join FlightAware (Why Join?)
  • Login
  • US Flag 
09:20AM EDT


 

Airport Tracker/Info


-or-


 

Live Flight TrackerFlight Track Log ✈ UAL4191 ✈ 03-May-2013 ✈ KEWR - KBNA

Flight Track Log - Related Links

Times and Time Zones

All times are in EDT time to prevent confusion due to time zone crossing. See the UAL4191 flight status page for this flight to view local times or setup timezone preferences in your user account.

Time Position Orientation Groundspeed Altitude Reporting Facility
EDT Latitude Longitude Course Direction KTS MPH feet Rate Location/Type
07:37PM 40.6333 -74.1833 258° West 175 201 2,200  Level New York TRACON
07:38PM 40.6333 -74.2667 270° West 245 282 3,500 1,980 Climbing New York TRACON
07:39PM 40.6167 -74.3667 258° West 264 304 6,200 2,400 Climbing New York TRACON
07:40PM 40.6833 -74.7192 270° West  Level FlightAware Approximate
07:40PM 40.6167 -74.4500 270° West 266 306 8,300  Level New York TRACON
07:41PM 40.6834 -74.8573 270° West  Level FlightAware Approximate
07:41PM 40.6167 -74.5500 270° West 286 329 9,900  Level New York TRACON
07:42PM 40.6786 -74.9948 258° West  Level FlightAware Approximate
07:42PM 40.6294 -74.6403 281° West 309 356 11,500  Level New York Center
07:43PM 40.6428 -74.7422 280° West 311 358 13,900 1,560 Climbing New York Center
07:44PM 40.6575 -74.8553 280° West 311 358 14,700 600 Climbing New York Center
07:45PM 40.6703 -74.9681 279° West 338 389 15,100 720 Climbing New York Center
07:46PM 40.6650 -75.1183 267° West 372 428 16,200 900 Climbing New York Center
07:47PM 40.6125 -75.2381 240° Southwest 378 435 17,000 840 Climbing New York Center
07:48PM 40.5536 -75.3625 238° Southwest 396 456 18,000 780 Climbing New York Center
07:49PM 40.5011 -75.4792 239° Southwest 412 474 18,600 1,080 Climbing New York Center
07:50PM 40.4392 -75.6139 239° Southwest 412 474 20,200 1,980 Climbing New York Center
07:51PM 40.3842 -75.7356 239° Southwest 406 467 22,600 2,160 Climbing New York Center
07:52PM 40.3317 -75.8433 237° Southwest 382 440 24,700 1,500 Climbing New York Center
07:53PM 40.2789 -75.9564 239° Southwest 369 425 25,700 960 Climbing New York Center
07:54PM 40.2239 -76.0694 238° Southwest 369 425 26,700 960 Climbing New York Center
07:55PM 40.1706 -76.1847 239° Southwest 374 430 27,700 900 Climbing New York Center
07:56PM 40.1178 -76.2892 237° Southwest 379 436 28,600 900 Climbing New York Center
07:57PM 40.0642 -76.4100 240° Southwest 379 436 29,600 960 Climbing New York Center
07:58PM 40.0086 -76.5247 238° Southwest 379 436 30,600 1,020 Climbing New York Center
07:59PM 39.9522 -76.6556 241° Southwest 379 436 31,700 1,260 Climbing New York Center
08:00PM 39.9008 -76.7622 238° Southwest 384 442 33,100 1,200 Climbing New York Center
08:01PM 39.8469 -76.8792 239° Southwest 384 442 34,200 1,200 Climbing New York Center
08:02PM 39.7844 -77.0064 237° Southwest 377 434 35,600 840 Climbing Washington Center
08:03PM 39.7311 -77.1186 238° Southwest 356 410 36,000 180 Climbing Washington Center
08:04PM 39.6775 -77.2333 239° Southwest 363 418 36,000  Level Washington Center
08:05PM 39.6217 -77.3561 239° Southwest 378 435 36,000  Level Washington Center
08:06PM 39.5614 -77.4811 238° Southwest 403 464 36,000  Level Washington Center
08:07PM 39.4989 -77.6086 238° Southwest 416 479 36,000  Level Washington Center
08:08PM 39.4403 -77.7358 239° Southwest 422 486 36,000  Level Washington Center
08:09PM 39.3797 -77.8631 238° Southwest 422 486 36,000  Level Washington Center
08:10PM 39.3269 -77.9983 243° Southwest 422 486 36,000  Level Washington Center
08:11PM 39.2764 -78.1281 243° Southwest 417 480 36,000  Level Washington Center
08:12PM 39.2217 -78.2572 241° Southwest 417 480 36,000  Level Washington Center
08:13PM 39.1706 -78.3894 244° Southwest 412 474 36,000  Level Washington Center
08:14PM 39.1175 -78.5183 242° Southwest 412 474 36,000  Level Washington Center
08:15PM 39.0664 -78.6475 243° Southwest 407 468 36,000  Level Washington Center
08:16PM 39.0150 -78.7761 243° Southwest 407 468 36,000  Level Washington Center
08:17PM 38.9639 -78.9019 242° Southwest 402 463 36,000  Level Washington Center
08:18PM 38.9122 -79.0331 243° Southwest 407 468 36,000  Level Washington Center
08:19PM 38.8583 -79.1586 241° Southwest 407 468 36,000  Level Washington Center
08:20PM 38.8250 -79.2956 253° West 402 463 36,000  Level Washington Center
08:21PM 38.8000 -79.4303 257° West 397 457 36,000  Level Washington Center
08:22PM 38.7767 -79.5728 258° West 397 457 36,000  Level Washington Center
08:23PM 38.7511 -79.7097 257° West 402 463 36,000 -420 Level Washington Center
08:24PM 38.7256 -79.8467 257° West 407 468 35,200 -1,140 Descending Washington Center
08:25PM 38.7022 -79.9731 257° West 414 476 33,700 -1,560 Descending Washington Center
08:26PM 38.6761 -80.1125 257° West 414 476 32,200 -900 Descending Washington Center
08:27PM 38.6478 -80.2450 255° West 418 481 32,000 -120 Descending Indianapolis Center
08:28PM 38.6200 -80.3928 257° West 425 489 32,000  Level Indianapolis Center
08:29PM 38.5928 -80.5411 257° West 426 490 32,000  Level Indianapolis Center
08:30PM 38.5633 -80.6908 256° West 431 496 32,000  Level Indianapolis Center
08:31PM 38.5289 -80.8692 256° West 431 496 32,000  Level Indianapolis Center
08:32PM 38.4994 -81.0192 256° West 433 498 32,000  Level Indianapolis Center
08:33PM 38.4703 -81.1692 256° West 432 497 32,000  Level Indianapolis Center
08:34PM 38.4408 -81.3197 256° West 432 497 32,000  Level Indianapolis Center
08:35PM 38.4106 -81.4703 256° West 432 497 32,000  Level Indianapolis Center
08:36PM 38.3808 -81.6208 256° West 433 498 32,000  Level Indianapolis Center
08:37PM 38.3492 -81.7703 255° West 432 497 32,000  Level Indianapolis Center
08:38PM 38.3097 -81.9161 251° West 434 499 32,000  Level Indianapolis Center
08:39PM 38.2689 -82.0617 250° West 435 501 32,000  Level Indianapolis Center
08:40PM 38.2275 -82.2081 250° West 438 504 32,000  Level Indianapolis Center
08:41PM 38.1858 -82.3544 250° West 438 504 32,000  Level Indianapolis Center
08:42PM 38.1422 -82.5078 250° West 440 506 32,000  Level Indianapolis Center
08:43PM 38.1006 -82.6531 250° West 438 504 32,000  Level Indianapolis Center
08:44PM 38.0506 -82.8222 249° West 440 506 32,000  Level Indianapolis Center
08:45PM 38.0078 -82.9675 250° West 440 506 32,000  Level Indianapolis Center
08:46PM 37.9650 -83.1128 250° West 441 507 32,000  Level Indianapolis Center
08:47PM 37.9019 -83.2456 239° Southwest 442 509 32,000  Level Indianapolis Center
08:48PM 37.8344 -83.3703 236° Southwest 432 497 32,000  Level Indianapolis Center
08:49PM 37.7667 -83.4964 236° Southwest 433 498 32,000  Level Indianapolis Center
08:50PM 37.6986 -83.6222 236° Southwest 432 497 32,000  Level Indianapolis Center
08:51PM 37.6192 -83.7692 236° Southwest 433 498 32,000  Level Indianapolis Center
08:52PM 37.5506 -83.8942 235° Southwest 434 499 32,000  Level Indianapolis Center
08:53PM 37.4842 -84.0183 236° Southwest 428 493 32,000  Level Indianapolis Center
08:54PM 37.4156 -84.1433 235° Southwest 432 497 32,000  Level Indianapolis Center
08:56PM 37.3483 -84.2675 236° Southwest 430 495 32,000  Level Indianapolis Center
08:57PM 37.2786 -84.3933 235° Southwest 437 503 32,000  Level Indianapolis Center
08:58PM 37.2092 -84.5153 234° Southwest 433 498 32,000  Level Indianapolis Center
08:59PM 37.1411 -84.6392 235° Southwest 433 498 32,000 -840 Level Indianapolis Center
09:00PM 37.0619 -84.7789 235° Southwest 422 486 30,400 -1,560 Descending Indianapolis Center
09:01PM 37.0064 -84.8794 235° Southwest 418 481 28,900 -1,740 Descending Indianapolis Center
09:02PM 36.9228 -85.0328 236° Southwest 445 512 26,900 -1,800 Descending Indianapolis Center
09:03PM 36.8589 -85.1686 240° Southwest 453 521 25,300 -1,740 Descending Indianapolis Center
09:04PM 36.7972 -85.3022 240° Southwest 450 518 23,400 -1,680 Descending Indianapolis Center
09:05PM 36.7361 -85.4300 239° Southwest 437 503 21,900 -1,680 Descending Indianapolis Center
09:06PM 36.6775 -85.5550 240° Southwest 420 483 20,000 -2,040 Descending Indianapolis Center
09:07PM 36.6208 -85.6747 239° Southwest 405 466 17,800 -2,160 Descending Indianapolis Center
09:08PM 36.5653 -85.7903 239° Southwest 392 451 15,700 -2,280 Descending Indianapolis Center
09:09PM 36.5158 -85.8969 240° Southwest 350 403 13,200 -2,040 Descending Indianapolis Center
09:10PM 36.4703 -85.9914 239° Southwest 317 365 11,600 -1,620 Descending Indianapolis Center
09:10PM 36.4500 -86.0167 225° Southwest 293 337 11,200 -1,260 Descending Nashville TRACON
09:11PM 36.4331 -86.0831 252° West 303 349 10,300 -1,620 Descending Memphis Center
09:12PM 36.3983 -86.1700 244° Southwest 286 329 8,400 -1,980 Descending Memphis Center
09:13PM 36.3658 -86.2542 244° Southwest 286 329 6,400 -1,800 Descending Memphis Center
09:14PM 36.3331 -86.3356 243° Southwest 281 323 4,900 -1,320 Descending Memphis Center
09:15PM 36.2981 -86.4172 242° Southwest 274 315 3,800 -960 Descending Memphis Center
09:16PM 36.2633 -86.5064 244° Southwest 269 310 3,000 -780 Descending Memphis Center
09:17PM 36.2325 -86.5850 244° Southwest 269 310 2,300 -720 Descending Memphis Center